الصفحة الرئيسية
METAR-TAF:

METAR-TAF

مطار :

Santa Maria di Leuca

كاسترينيانو دل كابو, إيطاليا

دائرة عرض: 39-49N, خط طول: 018-21E, ارتفاع: 104 متر

مراقبة الطقس الحالي

تاريخ ووقت الإصدار 1ساعة و 29 دقيقة قبل الساعة 14:55UTC
ريح 6 عقدة من الغرب
درجة الحرارة 14°درجة مئوية
الرطوبة 77%
ضغط 1022 hPa
الرؤية 10 كم أو أكثر
غيوم قليلة على ارتفاع 3000 قدم

METAR: LIBY 061455Z 27006KT 9999 FEW030 14/10 Q1022 RMK BKN BKN080 QUK 2 QUL 1 SW VIS MAR 10 KM VIS MIN 9999

زمن: 18:24 (16:24 UTC)


TAF: مفقودة

أرصاد الطقس والتوقعات من أكثر من 4000 مطار (تقارير الطقس للمطار METAR والتنبؤ بالطقس بالمطارTAF).

المحطات المتاحة هي النقط الصفراء والحمراء على الخريطة.

حرك المؤشر فوق النقطة لمعرفة اسم المحطة.

ثم انقر لمعرفة أرصاد وتوقعات الطقس.

لتغيير الخارطة: اضغط على الأزرار الخضراء مع رمز الصليب الأسود للتكبير. على الزر الأخضر مع شرطة للتصغير، أو على الأسهم الخضراء للخرائط المجاورة.


METAR-TAF: